Time;durP1;ratioP1;P1;durP2;ratioP2;P2;SDS_P1;SDS_P2;PMS_P1;PMS_P2;Temp;Humidity;BMP_temperature;BMP_pressure;BME280_temperature;BME280_humidity;BME280_pressure;Samples;Min_cycle;Max_cycle;Signal;HPM_P1;HPM_P2
2023/12/04 00:00:07;;;;;;;5.60;3.43;;;12.10;98.80;;;12.62;41.60;101086.22;4870222;28;97527;-56
2023/12/04 00:02:33;;;;;;;4.87;2.93;;;12.30;99.10;;;12.53;43.23;101076.84;4884850;28;99977;-54
2023/12/04 00:04:59;;;;;;;9.93;4.50;;;12.10;99.90;;;12.37;39.49;101079.19;4883251;28;97696;-47
2023/12/04 00:07:25;;;;;;;4.57;2.37;;;12.00;98.60;;;12.39;41.81;101077.34;4866817;28;98445;-60
2023/12/04 00:09:50;;;;;;;3.37;2.33;;;11.90;99.90;;;12.46;44.34;101078.88;4877277;28;122522;-52
2023/12/04 00:12:16;;;;;;;5.00;2.90;;;11.90;99.90;;;12.48;44.42;101065.56;4886641;28;97563;-59
2023/12/04 00:14:42;;;;;;;8.63;3.90;;;12.00;99.90;;;12.40;43.32;101057.91;4888025;28;98968;-52
2023/12/04 00:17:08;;;;;;;4.13;2.37;;;12.00;99.90;;;12.40;44.05;101062.34;4880193;28;98279;-55
2023/12/04 00:19:34;;;;;;;6.17;3.77;;;11.90;99.90;;;12.47;42.05;101062.06;4879059;28;98700;-48
2023/12/04 00:22:00;;;;;;;4.20;2.23;;;12.00;99.90;;;12.62;43.88;101060.63;4881776;28;98810;-52
2023/12/04 00:24:25;;;;;;;6.73;3.17;;;12.20;99.90;;;12.75;43.29;101056.59;4880619;28;111307;-59
2023/12/04 00:26:51;;;;;;;4.47;2.83;;;12.40;99.90;;;12.71;41.77;101049.69;4866673;28;115314;-54
2023/12/04 00:29:17;;;;;;;6.70;3.10;;;12.40;99.90;;;12.84;41.37;101046.56;4880799;28;111971;-55
2023/12/04 00:31:42;;;;;;;5.07;3.40;;;12.60;98.70;;;12.72;40.06;101040.81;4867581;28;100033;-52
2023/12/04 00:34:08;;;;;;;4.90;2.87;;;12.40;99.80;;;12.75;41.74;101032.78;4878253;28;120543;-59
2023/12/04 00:36:34;;;;;;;5.90;3.53;;;12.40;99.90;;;12.82;41.55;101028.97;4862159;28;110362;-59
2023/12/04 00:39:00;;;;;;;4.40;2.60;;;12.50;99.00;;;12.79;41.31;101031.72;4877347;28;97815;-58
2023/12/04 00:41:25;;;;;;;6.73;4.10;;;12.40;99.90;;;12.55;42.54;101040.59;4879486;28;99524;-55
2023/12/04 00:43:51;;;;;;;8.83;4.90;;;12.10;99.90;;;12.39;37.65;101031.50;4859533;28;119410;-56
2023/12/04 00:46:17;;;;;;;7.03;4.77;;;12.10;96.80;;;12.40;37.88;101027.94;4873915;28;98770;-59
2023/12/04 00:48:43;;;;;;;4.20;2.97;;;12.00;97.60;;;12.20;42.95;101023.41;4880547;28;116696;-56
2023/12/04 00:51:08;;;;;;;5.00;2.70;;;11.70;99.90;;;12.12;41.63;101015.72;4883343;28;100384;-56
2023/12/04 00:53:34;;;;;;;5.50;3.17;;;11.60;99.90;;;12.24;44.02;101019.72;4877016;28;123175;-56
2023/12/04 00:56:00;;;;;;;10.13;4.03;;;11.70;99.90;;;12.30;43.15;101018.66;4880277;28;97831;-51
2023/12/04 00:58:26;;;;;;;4.50;2.83;;;11.80;99.90;;;12.37;41.87;101009.53;4872252;28;102712;-51
2023/12/04 01:00:52;;;;;;;7.87;4.03;;;11.90;99.90;;;12.37;42.37;100998.97;4851602;28;106882;-57
2023/12/04 01:03:18;;;;;;;4.87;3.03;;;12.00;99.90;;;12.33;41.25;100998.22;4862586;28;98357;-59
2023/12/04 01:05:43;;;;;;;5.10;3.47;;;11.90;98.80;;;12.39;41.62;100997.13;4856492;28;101398;-52
2023/12/04 01:08:09;;;;;;;6.30;3.17;;;11.90;99.90;;;12.25;43.93;100986.19;4858550;28;108851;-59
2023/12/04 01:10:35;;;;;;;4.97;3.30;;;11.80;99.90;;;12.32;43.24;100990.34;4857410;28;127720;-48
2023/12/04 01:13:01;;;;;;;7.83;3.57;;;11.90;99.90;;;12.39;44.08;100989.19;4857337;28;124254;-59
2023/12/04 01:15:26;;;;;;;4.77;2.77;;;11.90;99.90;;;12.51;39.80;100980.78;4860759;28;100629;-58
2023/12/04 01:17:52;;;;;;;5.30;3.30;;;12.20;99.90;;;12.58;43.72;100979.59;4859173;28;99206;-61
2023/12/04 01:20:18;;;;;;;5.97;3.83;;;12.30;99.90;;;12.46;39.39;100982.75;4853346;28;121486;-57
2023/12/04 01:22:44;;;;;;;4.03;2.60;;;12.10;98.50;;;12.82;43.12;100989.25;4845605;28;98436;-54
2023/12/04 01:25:10;;;;;;;3.33;2.53;;;12.50;99.90;;;12.51;42.30;100981.66;4854533;28;101925;-60
2023/12/04 01:27:37;;;;;;;3.73;2.37;;;12.20;98.50;;;12.67;42.47;100987.19;4855772;28;98878;-54
2023/12/04 01:30:05;;;;;;;7.30;4.60;;;12.30;99.90;;;12.42;42.43;100981.13;4861986;28;98590;-55
2023/12/04 01:32:31;;;;;;;4.93;2.97;;;12.00;98.80;;;12.26;41.39;100985.28;4861247;28;97926;-59
2023/12/04 01:34:57;;;;;;;4.73;2.77;;;11.80;99.00;;;12.36;40.27;100986.66;4858026;28;120078;-48
2023/12/04 01:37:23;;;;;;;7.70;4.27;;;11.80;99.90;;;12.26;40.18;100986.13;4861921;28;113125;-46
2023/12/04 01:39:49;;;;;;;3.17;1.97;;;11.80;97.80;;;12.21;43.36;100980.16;4858855;28;99778;-46
2023/12/04 01:42:15;;;;;;;7.83;4.60;;;11.70;99.90;;;11.96;41.90;100980.19;4854245;28;100489;-52
2023/12/04 01:44:40;;;;;;;5.13;2.80;;;11.50;99.30;;;12.01;44.03;100982.69;4865704;28;112413;-48
2023/12/04 01:47:09;;;;;;;7.37;3.77;;;11.40;99.90;;;12.06;44.27;100973.66;4862756;28;106452;-48
2023/12/04 01:49:36;;;;;;;7.87;4.33;;;11.50;99.90;;;11.67;39.23;100980.31;4862113;28;98317;-60
2023/12/04 01:52:02;;;;;;;6.17;3.47;;;11.20;98.40;;;11.91;39.19;100967.16;4860499;28;98311;-53
2023/12/04 01:54:29;;;;;;;6.67;4.03;;;11.50;99.90;;;11.95;41.07;100959.09;4857103;28;97347;-54
2023/12/04 01:56:55;;;;;;;5.67;2.87;;;11.50;99.10;;;12.17;44.71;100963.56;4846254;28;100544;-50
2023/12/04 01:59:21;;;;;;;7.37;3.93;;;11.70;99.90;;;12.10;41.73;100954.09;4840893;28;126327;-48
2023/12/04 02:01:48;;;;;;;2.10;1.87;;;11.70;98.60;;;12.33;43.13;100955.03;4859564;28;111397;-46
2023/12/04 02:04:14;;;;;;;2.63;1.90;;;11.90;99.90;;;12.53;43.97;100941.88;4831854;28;102613;-46
2023/12/04 02:06:41;;;;;;;3.67;2.37;;;12.20;99.90;;;12.68;41.74;100946.56;4857566;28;120958;-50
2023/12/04 02:09:11;;;;;;;5.67;3.27;;;12.50;98.80;;;12.51;43.31;100954.31;4865171;28;100517;-48
2023/12/04 02:11:37;;;;;;;3.97;2.80;;;12.20;99.90;;;12.80;42.50;100951.38;4843895;28;101735;-47
2023/12/04 02:14:02;;;;;;;3.97;2.10;;;12.60;99.80;;;12.78;42.88;100953.25;4846050;28;121277;-54
2023/12/04 02:16:30;;;;;;;4.50;2.70;;;12.50;99.90;;;12.86;42.27;100944.09;4854784;28;111230;-46
2023/12/04 02:18:56;;;;;;;5.17;3.47;;;12.60;99.60;;;12.67;38.43;100944.84;4842075;28;97541;-45
2023/12/04 02:21:21;;;;;;;7.20;4.43;;;12.50;96.90;;;12.69;41.45;100950.94;4862874;28;101062;-52
2023/12/04 02:23:52;;;;;;;3.30;2.43;;;12.40;99.60;;;12.78;43.19;100953.25;4858110;28;100611;-59
2023/12/04 02:26:25;;;;;;;4.67;2.67;;;12.40;99.90;;;12.77;41.31;100943.56;4861278;28;98319;-60
2023/12/04 02:28:59;;;;;;;2.77;2.20;;;12.50;98.00;;;12.86;43.26;100938.81;4843744;28;99605;-60
2023/12/04 02:31:27;;;;;;;3.10;2.20;;;12.50;99.90;;;12.79;41.73;100940.88;4819285;28;98062;-45
2023/12/04 02:33:56;;;;;;;3.00;2.13;;;12.50;97.70;;;12.93;42.97;100929.72;4855859;28;99887;-50
2023/12/04 02:36:24;;;;;;;2.43;2.20;;;12.60;99.90;;;12.99;43.06;100934.75;4864334;28;99056;-47
2023/12/04 02:38:51;;;;;;;4.20;2.70;;;12.60;99.90;;;13.02;37.69;100918.75;4879698;28;108452;-46
2023/12/04 02:41:17;;;;;;;2.27;2.07;;;12.80;97.00;;;13.10;42.79;100916.63;4916379;28;97428;-47
2023/12/04 02:43:43;;;;;;;2.60;2.20;;;12.80;99.90;;;13.10;43.07;100913.97;4924240;28;97180;-47
2023/12/04 02:46:09;;;;;;;3.70;2.50;;;12.80;99.90;;;13.16;42.63;100907.56;4897769;28;97140;-47
2023/12/04 02:48:35;;;;;;;2.87;1.80;;;12.90;99.90;;;13.20;42.28;100904.75;4915491;28;128134;-46
2023/12/04 02:51:03;;;;;;;4.03;2.23;;;13.00;99.90;;;13.08;42.43;100902.59;4914695;28;109552;-51
2023/12/04 02:53:29;;;;;;;2.63;1.70;;;12.80;99.90;;;13.07;42.49;100893.78;4910406;28;98447;-49
2023/12/04 02:55:54;;;;;;;2.63;1.93;;;12.80;99.90;;;13.24;40.25;100893.09;4916642;28;98457;-48
2023/12/04 02:58:20;;;;;;;6.53;3.23;;;13.10;97.60;;;13.09;39.07;100896.38;4914889;28;123720;-46
2023/12/04 03:00:46;;;;;;;3.03;2.27;;;12.90;95.90;;;13.12;42.77;100893.59;4914426;28;96919;-54
2023/12/04 03:03:12;;;;;;;3.00;2.10;;;12.80;99.90;;;13.28;42.69;100884.09;4923586;28;104564;-49
2023/12/04 03:05:38;;;;;;;3.30;2.53;;;13.00;99.90;;;13.08;38.04;100889.34;4914893;28;97606;-58
2023/12/04 03:08:03;;;;;;;5.23;3.03;;;12.90;96.40;;;13.18;42.09;100877.50;4916032;28;110708;-52
2023/12/04 03:10:29;;;;;;;4.47;2.63;;;12.90;99.40;;;13.18;39.41;100876.59;4913050;28;98302;-52
2023/12/04 03:12:55;;;;;;;3.43;2.37;;;12.90;96.90;;;12.94;40.14;100878.47;4913987;28;98645;-54
2023/12/04 03:15:21;;;;;;;5.67;3.90;;;12.60;97.40;;;12.43;36.34;100883.16;4915096;28;109952;-59
2023/12/04 03:17:47;;;;;;;3.87;2.37;;;12.00;95.10;;;12.32;41.65;100889.84;4913879;28;120087;-54
2023/12/04 03:20:13;;;;;;;3.13;2.07;;;11.60;99.00;;;12.27;44.17;100881.19;4913125;28;101720;-57
2023/12/04 03:22:38;;;;;;;2.67;2.07;;;11.60;99.90;;;12.17;39.57;100881.56;4878577;28;104731;-48
2023/12/04 03:25:05;;;;;;;6.73;3.77;;;11.60;98.10;;;12.33;42.20;100865.97;4909805;28;97660;-51
2023/12/04 03:27:31;;;;;;;5.80;3.30;;;11.90;99.10;;;12.13;40.50;100863.22;4913075;28;98292;-54
2023/12/04 03:29:56;;;;;;;6.00;3.53;;;11.60;96.10;;;11.94;37.89;100857.78;4913340;28;97787;-50
2023/12/04 03:32:22;;;;;;;6.10;3.47;;;11.40;97.00;;;12.12;40.03;100862.34;4914336;28;98281;-58
2023/12/04 03:34:48;;;;;;;4.90;2.90;;;11.60;98.20;;;12.36;43.63;100859.69;4915160;28;97094;-55
2023/12/04 03:37:14;;;;;;;3.27;2.07;;;11.80;99.90;;;12.43;41.98;100861.16;4917328;28;117792;-56
2023/12/04 03:39:39;;;;;;;5.13;2.80;;;12.00;98.90;;;12.35;42.92;100853.53;4914653;28;110877;-56
2023/12/04 03:42:05;;;;;;;4.07;2.63;;;11.90;99.70;;;12.38;43.71;100842.81;4898541;28;100618;-50
2023/12/04 03:44:31;;;;;;;3.17;1.63;;;11.90;99.90;;;12.40;44.09;100837.47;4913337;28;97330;-54
2023/12/04 03:46:57;;;;;;;4.40;2.33;;;11.90;99.90;;;12.35;43.94;100842.94;4897790;28;97383;-56
2023/12/04 03:49:23;;;;;;;3.07;1.97;;;11.80;99.90;;;12.53;44.25;100830.75;4915621;28;98895;-47
2023/12/04 03:51:49;;;;;;;3.87;2.17;;;12.00;99.90;;;12.63;43.00;100826.81;4912847;28;98608;-54
2023/12/04 03:54:14;;;;;;;3.53;1.90;;;12.30;99.90;;;12.79;42.80;100827.91;4922857;28;97908;-53
2023/12/04 03:56:40;;;;;;;2.13;1.87;;;12.50;99.90;;;12.90;43.08;100824.81;4914133;28;98400;-51
2023/12/04 03:59:10;;;;;;;5.03;2.90;;;12.60;99.90;;;12.96;41.82;100829.81;4908667;28;104319;-45
2023/12/04 04:01:35;;;;;;;6.73;4.07;;;12.80;98.40;;;12.85;37.46;100824.13;4915346;28;97867;-47
2023/12/04 04:04:01;;;;;;;3.23;2.17;;;12.60;94.60;;;12.97;42.20;100828.03;4916591;28;100766;-46
2023/12/04 04:06:27;;;;;;;6.03;3.17;;;12.60;99.90;;;12.71;42.04;100835.28;4915797;28;97080;-46
2023/12/04 04:08:53;;;;;;;4.97;3.17;;;12.30;98.80;;;12.52;41.35;100826.41;4914623;28;110407;-49
2023/12/04 04:11:18;;;;;;;2.70;1.70;;;12.00;97.70;;;12.63;43.66;100818.88;4913074;28;97954;-46
2023/12/04 04:13:44;;;;;;;5.07;3.20;;;12.10;99.90;;;12.75;41.78;100817.50;4918191;28;97151;-56
2023/12/04 04:16:15;;;;;;;4.23;2.83;;;12.40;99.40;;;13.00;41.67;100814.66;4892074;28;100500;-50
2023/12/04 04:18:43;;;;;;;4.20;2.23;;;12.80;99.10;;;12.98;37.79;100808.56;4914373;28;101170;-54
2023/12/04 04:21:09;;;;;;;2.90;1.40;;;12.80;95.70;;;13.10;42.66;100813.34;4913160;28;97151;-55
2023/12/04 04:23:34;;;;;;;2.87;2.17;;;12.90;99.90;;;13.29;42.14;100813.41;4900924;28;97486;-56
2023/12/04 04:26:00;;;;;;;2.97;1.73;;;13.10;99.90;;;13.39;42.15;100818.25;4915386;28;113812;-56
2023/12/04 04:28:26;;;;;;;3.00;1.80;;;13.30;99.90;;;13.26;40.65;100810.91;4913489;28;98374;-58
2023/12/04 04:30:52;;;;;;;2.33;1.70;;;13.20;97.60;;;13.15;42.28;100798.09;4901561;28;109879;-57
2023/12/04 04:33:18;;;;;;;4.50;2.93;;;12.90;99.70;;;13.04;36.69;100805.69;4909781;28;122117;-60
2023/12/04 04:35:44;;;;;;;2.13;1.40;;;12.80;96.40;;;13.02;42.96;100797.81;4914339;28;97766;-56
2023/12/04 04:38:09;;;;;;;4.70;2.63;;;12.70;99.90;;;12.72;42.07;100797.31;4917598;28;97478;-50
2023/12/04 04:40:35;;;;;;;5.93;3.23;;;12.40;98.00;;;12.61;35.93;100796.91;4915055;28;98002;-58
2023/12/04 04:43:01;;;;;;;4.33;2.67;;;12.20;94.80;;;12.76;40.84;100783.03;4915973;28;107390;-52
2023/12/04 04:45:27;;;;;;;4.47;2.50;;;12.30;99.60;;;12.64;42.48;100790.63;4917870;28;97955;-58
2023/12/04 04:47:53;;;;;;;5.07;2.90;;;12.20;98.80;;;12.69;42.44;100794.78;4914050;28;119468;-58
2023/12/04 04:50:18;;;;;;;2.40;1.90;;;12.40;99.40;;;13.03;43.00;100786.28;4912376;28;97314;-54
2023/12/04 04:52:44;;;;;;;3.20;1.80;;;12.80;99.90;;;12.91;42.88;100791.25;4921754;28;97363;-55
2023/12/04 04:55:10;;;;;;;5.20;3.17;;;12.60;99.90;;;12.91;40.21;100794.75;4911276;28;97348;-52
2023/12/04 04:57:36;;;;;;;3.27;1.97;;;12.70;95.50;;;12.74;38.02;100792.84;4918264;28;113243;-48
2023/12/04 05:00:02;;;;;;;7.07;4.10;;;12.50;96.80;;;12.76;35.10;100790.13;4916848;28;97119;-57
2023/12/04 05:02:28;;;;;;;5.90;3.50;;;12.60;94.40;;;12.64;40.25;100787.97;4919202;28;98711;-55
2023/12/04 05:04:54;;;;;;;2.50;2.07;;;12.30;98.00;;;12.98;42.45;100779.44;4899188;28;101495;-58
2023/12/04 05:07:19;;;;;;;2.80;1.63;;;12.70;99.90;;;13.06;42.54;100783.50;4917936;28;118728;-51
2023/12/04 05:09:45;;;;;;;4.80;2.60;;;12.90;99.90;;;13.17;41.51;100785.69;4918120;28;113429;-52
2023/12/04 05:12:11;;;;;;;1.77;1.37;;;13.10;98.90;;;13.16;42.21;100783.94;4921324;28;124844;-56
2023/12/04 05:14:36;;;;;;;2.23;1.67;;;13.00;99.90;;;13.30;40.08;100781.56;4897069;28;100188;-49
2023/12/04 05:17:02;;;;;;;4.77;2.70;;;13.20;97.50;;;13.32;40.95;100778.88;4918178;28;112769;-57
2023/12/04 05:19:28;;;;;;;2.20;1.63;;;13.20;97.30;;;13.32;41.99;100777.09;4916726;28;97363;-49
2023/12/04 05:21:54;;;;;;;2.23;1.83;;;13.10;99.60;;;13.36;40.19;100770.69;4916022;28;97473;-56
2023/12/04 05:24:20;;;;;;;4.73;2.87;;;13.30;98.00;;;13.39;35.98;100767.06;4920689;28;111125;-52
2023/12/04 05:26:46;;;;;;;3.83;2.27;;;13.30;95.90;;;13.55;41.23;100759.25;4900053;28;123823;-50
2023/12/04 05:29:11;;;;;;;2.57;1.80;;;13.50;98.60;;;13.54;41.57;100762.84;4904183;28;101546;-52
2023/12/04 05:31:37;;;;;;;3.87;3.10;;;13.40;99.90;;;13.39;40.76;100759.97;4915448;28;116673;-57
2023/12/04 05:34:03;;;;;;;5.20;2.90;;;13.30;96.40;;;13.20;41.06;100767.03;4915653;28;122156;-47
2023/12/04 05:36:28;;;;;;;3.27;2.10;;;13.00;98.10;;;13.50;41.97;100758.63;4910183;28;117524;-60
2023/12/04 05:38:54;;;;;;;3.37;2.30;;;13.40;99.90;;;13.58;40.80;100751.16;4894623;28;108848;-49
2023/12/04 05:41:20;;;;;;;3.20;2.03;;;13.60;98.30;;;13.68;41.34;100757.75;4916515;28;98090;-53
2023/12/04 05:43:46;;;;;;;3.03;1.97;;;13.70;98.50;;;13.56;41.25;100760.97;4908448;28;105926;-54
2023/12/04 05:46:11;;;;;;;5.63;3.63;;;13.60;98.50;;;13.58;40.56;100759.09;4892021;28;118353;-59
2023/12/04 05:48:37;;;;;;;3.97;2.40;;;13.50;96.90;;;13.51;40.12;100753.25;4912366;28;106970;-60
2023/12/04 05:51:03;;;;;;;2.93;1.77;;;13.40;96.80;;;13.53;41.07;100745.22;4912088;28;118213;-55
2023/12/04 05:53:29;;;;;;;5.27;3.00;;;13.40;99.00;;;13.58;39.73;100740.56;4917538;28;97093;-58
2023/12/04 05:55:55;;;;;;;8.53;5.30;;;13.50;97.30;;;13.37;37.55;100756.53;4916569;28;98862;-61
2023/12/04 05:58:20;;;;;;;6.37;4.10;;;13.40;93.90;;;13.20;36.11;100751.13;4915146;28;121873;-52
2023/12/04 06:00:46;;;;;;;2.67;1.57;;;13.20;93.80;;;13.35;42.03;100752.22;4909686;28;97387;-55
2023/12/04 06:03:12;;;;;;;2.17;1.70;;;13.20;99.80;;;13.60;41.64;100750.19;4918413;28;102828;-50
2023/12/04 06:05:38;;;;;;;3.43;2.03;;;13.60;99.80;;;13.58;41.37;100744.06;4916291;28;112280;-55
2023/12/04 06:08:04;;;;;;;3.70;2.43;;;13.50;99.10;;;13.65;38.35;100749.94;4904092;28;97332;-61
2023/12/04 06:10:30;;;;;;;6.03;3.40;;;13.70;95.70;;;13.45;35.35;100748.22;4905653;28;97346;-53
2023/12/04 06:12:56;;;;;;;2.50;1.67;;;13.50;94.00;;;13.55;41.54;100743.34;4915988;28;110272;-53
2023/12/04 06:15:21;;;;;;;4.23;2.30;;;13.40;99.40;;;13.47;41.46;100741.06;4916097;28;100262;-47
2023/12/04 06:17:47;;;;;;;4.93;3.13;;;13.40;98.50;;;13.49;38.72;100733.91;4914147;28;109291;-55
2023/12/04 06:20:13;;;;;;;5.73;3.60;;;13.50;94.30;;;13.51;41.01;100742.66;4917821;28;99240;-49
2023/12/04 06:22:39;;;;;;;1.93;1.60;;;13.40;98.50;;;13.54;41.49;100736.34;4909818;28;98542;-51
2023/12/04 06:25:06;;;;;;;3.97;2.17;;;13.50;99.80;;;13.37;41.75;100730.03;4907968;28;98973;-49
2023/12/04 06:27:32;;;;;;;4.63;3.13;;;13.20;98.60;;;13.23;39.67;100737.75;4916150;28;97322;-48
2023/12/04 06:29:58;;;;;;;3.30;2.33;;;13.10;95.70;;;13.49;41.76;100733.06;4913897;28;97661;-49
2023/12/04 06:32:24;;;;;;;9.90;4.80;;;13.40;99.20;;;13.48;37.82;100726.03;4918334;28;97716;-47
2023/12/04 06:34:51;;;;;;;4.47;2.20;;;13.50;94.70;;;13.56;41.37;100707.97;4915863;28;97193;-49
2023/12/04 06:37:17;;;;;;;3.67;2.03;;;13.40;99.90;;;13.51;39.55;100704.69;4917693;28;96926;-51
2023/12/04 06:39:45;;;;;;;4.37;2.50;;;13.40;96.40;;;13.37;40.80;100708.84;4916800;28;97203;-47
2023/12/04 06:42:12;;;;;;;3.27;2.47;;;13.30;97.80;;;13.46;41.44;100696.09;4906885;28;107102;-46
2023/12/04 06:44:38;;;;;;;2.47;2.07;;;13.30;99.30;;;13.69;41.54;100693.19;4913070;28;97520;-47
2023/12/04 06:47:05;;;;;;;1.83;1.50;;;13.60;99.90;;;13.79;41.19;100680.38;4917647;28;97173;-46
2023/12/04 06:49:33;;;;;;;4.27;3.40;;;13.80;99.20;;;13.83;39.93;100669.53;4918974;28;97294;-46
2023/12/04 06:51:59;;;;;;;4.63;2.53;;;13.90;97.00;;;13.82;40.64;100666.97;4897905;28;99098;-47
2023/12/04 06:54:26;;;;;;;6.20;3.03;;;13.80;98.40;;;13.86;40.99;100669.38;4918302;28;98125;-51
2023/12/04 06:56:52;;;;;;;2.33;2.00;;;13.90;98.70;;;13.99;40.72;100651.94;4918847;28;97383;-47
2023/12/04 06:59:18;;;;;;;4.27;3.17;;;14.10;98.40;;;13.95;38.11;100650.38;4918108;28;97409;-48
2023/12/04 07:01:44;;;;;;;3.97;2.77;;;14.20;95.40;;;13.87;40.31;100644.59;4921762;28;102025;-48
2023/12/04 07:04:10;;;;;;;6.23;3.50;;;13.90;97.70;;;13.79;35.07;100646.78;4906601;28;97269;-48
2023/12/04 07:06:39;;;;;;;5.33;3.17;;;13.90;93.70;;;13.90;40.31;100625.91;4912979;28;106156;-48
2023/12/04 07:09:09;;;;;;;5.97;3.07;;;13.90;97.00;;;13.79;40.45;100622.91;4913089;28;97391;-47
2023/12/04 07:11:34;;;;;;;6.27;2.70;;;13.80;97.20;;;13.85;35.11;100625.25;4899426;28;97523;-47
2023/12/04 07:14:00;;;;;;;4.77;3.63;;;14.10;94.10;;;13.77;35.23;100621.28;4916458;28;97747;-46
2023/12/04 07:16:26;;;;;;;3.70;1.83;;;13.80;92.30;;;13.76;40.03;100630.16;4900724;28;97416;-46
2023/12/04 07:18:52;;;;;;;2.90;1.93;;;13.70;96.40;;;13.84;39.46;100628.84;4915340;28;104334;-47
2023/12/04 07:21:18;;;;;;;5.03;3.07;;;13.80;95.70;;;13.54;37.71;100632.97;4917360;28;125624;-49
2023/12/04 07:23:43;;;;;;;6.30;2.93;;;13.30;93.70;;;12.91;37.58;100641.19;4915417;28;97262;-49
2023/12/04 07:26:09;;;;;;;5.67;3.23;;;12.50;94.20;;;12.86;40.41;100642.31;4910668;28;97336;-48
2023/12/04 07:28:35;;;;;;;5.53;3.37;;;12.30;98.40;;;12.70;41.71;100640.38;4920366;28;121337;-50
2023/12/04 07:31:03;;;;;;;9.53;4.80;;;12.10;97.80;;;12.27;41.57;100628.16;4895304;28;100501;-49
2023/12/04 07:33:29;;;;;;;2.30;1.80;;;11.70;97.70;;;12.78;43.17;100614.44;4885112;28;97403;-46
2023/12/04 07:35:56;;;;;;;3.37;2.50;;;12.30;99.90;;;12.72;43.05;100614.69;4902593;28;97330;-49
2023/12/04 07:38:22;;;;;;;6.40;4.20;;;12.40;99.90;;;12.02;34.20;100619.56;4913789;28;97312;-50
2023/12/04 07:40:47;;;;;;;8.30;4.67;;;11.70;92.40;;;12.31;40.66;100626.25;4915276;28;98697;-48
2023/12/04 07:43:14;;;;;;;3.23;2.40;;;11.90;97.70;;;12.03;39.87;100619.50;4907692;28;96955;-47
2023/12/04 07:45:41;;;;;;;5.37;2.90;;;11.50;96.00;;;11.81;38.23;100621.31;4897615;28;97370;-47
2023/12/04 07:48:07;;;;;;;5.23;2.73;;;11.30;96.50;;;12.12;38.14;100621.72;4911791;28;99850;-50
2023/12/04 07:50:33;;;;;;;4.53;3.03;;;11.70;97.20;;;12.02;40.92;100619.56;4913686;28;97222;-47
2023/12/04 07:52:59;;;;;;;3.10;2.27;;;11.70;96.30;;;11.93;44.18;100622.59;4908502;28;99333;-46
2023/12/04 07:57:53;;;;;;;3.97;2.30;;;12.20;99.90;;;12.75;42.98;100622.50;4935729;27;101364;-33
2023/12/04 08:00:19;;;;;;;4.10;2.57;;;12.60;99.90;;;12.89;37.70;100610.44;4944787;28;98964;-33
2023/12/04 08:02:46;;;;;;;3.57;2.43;;;12.80;96.30;;;13.19;42.47;100614.34;4885674;28;101299;-33
2023/12/04 08:05:12;;;;;;;4.00;2.33;;;13.20;99.90;;;13.39;41.00;100611.59;4861873;28;99743;-33
2023/12/04 08:07:38;;;;;;;4.97;2.40;;;13.50;97.70;;;13.28;40.64;100607.72;4865348;28;102344;-33
2023/12/04 08:10:06;;;;;;;1.93;1.47;;;13.30;96.80;;;13.42;42.29;100604.41;4856172;28;98336;-33
2023/12/04 08:12:33;;;;;;;4.90;2.30;;;13.40;99.40;;;13.47;38.99;100613.03;4857510;28;98889;-33
2023/12/04 08:14:59;;;;;;;3.87;2.93;;;13.50;94.60;;;13.13;38.63;100609.28;4854764;28;99553;-33
2023/12/04 08:17:25;;;;;;;2.83;1.90;;;13.10;94.10;;;13.10;42.09;100625.31;4846552;28;103408;-33
2023/12/04 08:19:51;;;;;;;3.10;1.77;;;12.90;99.40;;;13.19;42.34;100614.34;4855844;28;127562;-33
2023/12/04 08:22:17;;;;;;;3.67;1.83;;;12.90;99.80;;;13.12;36.95;100612.88;4860898;28;114523;-33
2023/12/04 08:24:43;;;;;;;3.20;2.20;;;13.00;95.50;;;13.02;40.32;100616.88;4825393;28;105122;-33
2023/12/04 08:27:09;;;;;;;3.57;2.50;;;12.90;96.70;;;12.90;35.94;100622.75;4861841;28;102062;-33
2023/12/04 08:29:34;;;;;;;3.20;2.37;;;12.70;94.50;;;13.02;41.75;100606.28;4851496;28;101405;-33
2023/12/04 08:32:00;;;;;;;2.63;1.70;;;12.80;98.90;;;13.19;42.67;100606.41;4860401;28;111863;-33
2023/12/04 08:34:26;;;;;;;4.17;2.57;;;13.00;99.90;;;13.22;41.16;100603.59;4855890;28;103632;-33
2023/12/04 08:36:52;;;;;;;3.00;1.70;;;13.10;97.30;;;13.27;42.54;100598.94;4842062;28;111918;-32
2023/12/04 08:39:18;;;;;;;2.83;2.13;;;13.10;99.90;;;13.45;41.70;100583.06;4857898;28;101035;-33
2023/12/04 08:41:47;;;;;;;2.17;1.30;;;13.40;99.40;;;13.47;40.67;100589.19;4843087;28;100938;-33
2023/12/04 08:44:14;;;;;;;3.30;1.80;;;13.40;96.50;;;13.60;41.60;100582.34;4847507;28;101922;-32
2023/12/04 08:46:39;;;;;;;3.07;2.07;;;13.50;99.20;;;13.47;39.87;100568.84;4835518;28;102955;-33
2023/12/04 08:49:05;;;;;;;4.73;2.23;;;13.40;95.50;;;13.54;41.50;100572.88;4854223;28;101566;-33
2023/12/04 08:51:31;;;;;;;4.60;2.43;;;13.40;98.50;;;13.56;38.93;100570.16;4857082;28;107689;-33
2023/12/04 08:53:57;;;;;;;5.80;3.10;;;13.50;96.40;;;13.46;35.88;100568.91;4857755;28;109001;-33
2023/12/04 08:56:23;;;;;;;3.73;1.93;;;13.40;93.90;;;13.46;39.38;100568.91;4858427;28;104926;-33
2023/12/04 08:58:50;;;;;;;4.80;3.17;;;13.30;96.20;;;13.43;39.88;100564.59;4853705;28;100888;-33
2023/12/04 09:01:16;;;;;;;4.80;3.17;;;13.30;96.50;;;13.41;38.18;100561.19;4850232;28;97857;-33
2023/12/04 09:03:42;;;;;;;3.37;2.43;;;13.20;95.00;;;13.37;41.09;100555.19;4853043;28;99554;-33
2023/12/04 09:06:08;;;;;;;5.67;2.90;;;13.10;98.30;;;13.39;35.53;100553.31;4854617;28;114865;-33
2023/12/04 09:08:35;;;;;;;3.30;2.50;;;13.20;94.20;;;13.51;39.01;100556.28;4864005;28;102173;-33
2023/12/04 09:54:04;;;;;;;6.50;3.33;;;12.50;97.50;;;12.70;39.54;100494.81;1152733;26;99074;-56
2023/12/04 09:56:33;;;;;;;2.80;1.73;;;12.60;94.50;;;13.05;40.58;100487.00;4934856;28;97315;-53
2023/12/04 09:59:00;;;;;;;4.33;2.20;;;12.80;98.30;;;13.01;39.75;100493.34;4940530;28;97551;-56
2023/12/04 10:01:30;;;;;;;2.83;1.87;;;12.80;96.00;;;13.17;40.35;100482.91;4938225;28;99282;-53
2023/12/04 10:03:58;;;;;;;3.13;1.90;;;12.90;97.90;;;13.27;39.89;100482.38;4925158;28;98089;-55
2023/12/04 10:11:27;;;;;;;3.37;2.27;;;13.50;95.40;;;13.58;38.30;100464.94;4888244;28;97771;-51
2023/12/04 10:13:54;;;;;;;3.57;2.07;;;13.60;95.50;;;13.69;39.45;100457.31;4896641;28;98681;-50
2023/12/04 10:16:37;;;;;;;2.23;1.70;;;13.70;96.70;;;13.69;39.30;100455.50;4896385;28;98634;-49
2023/12/04 10:19:18;;;;;;;2.67;1.57;;;13.70;95.90;;;13.86;38.44;100457.28;4900084;28;96972;-47
2023/12/04 10:21:47;;;;;;;4.97;2.97;;;13.90;95.80;;;13.84;38.17;100448.53;4896828;28;101944;-48
2023/12/04 10:24:26;;;;;;;7.13;3.10;;;13.90;94.90;;;13.74;38.70;100449.09;4897965;28;97402;-47
2023/12/04 10:26:52;;;;;;;3.30;2.00;;;13.80;91.60;;;13.84;39.36;100445.91;4901410;28;97213;-51
2023/12/04 10:29:18;;;;;;;1.73;1.43;;;13.90;96.40;;;14.01;39.48;100450.31;4899269;28;97354;-46
2023/12/04 10:31:44;;;;;;;3.97;2.70;;;14.10;97.10;;;13.62;35.86;100443.53;4901766;28;96896;-48
2023/12/04 10:34:10;;;;;;;3.90;2.33;;;13.70;92.70;;;13.63;39.34;100449.69;4901298;28;96877;-50
2023/12/04 10:36:37;;;;;;;4.20;2.63;;;13.50;95.60;;;13.49;35.40;100446.88;4907713;28;96931;-51
2023/12/04 10:39:06;;;;;;;1.87;1.50;;;13.50;92.60;;;13.35;40.53;100434.31;4898282;28;99252;-49
2023/12/04 10:41:33;;;;;;;2.37;1.50;;;13.20;97.30;;;13.42;40.31;100424.25;4891056;28;102030;-46
2023/12/04 10:44:00;;;;;;;6.10;3.07;;;13.30;97.40;;;12.80;33.78;100423.78;4929340;22;99541;-49
2023/12/04 10:46:27;;;;;;;6.37;3.23;;;12.80;91.30;;;12.75;38.05;100418.72;4929113;28;97481;-46
2023/12/04 10:48:54;;;;;;;4.23;2.83;;;12.60;94.60;;;12.42;39.14;100415.88;4925234;28;97289;-48
2023/12/04 10:51:22;;;;;;;4.07;2.13;;;12.10;95.60;;;12.30;39.30;100420.91;4910142;28;97373;-49
2023/12/04 10:53:48;;;;;;;3.20;1.80;;;11.90;96.40;;;12.67;41.58;100418.22;4912865;28;97067;-51
2023/12/04 10:56:39;;;;;;;4.27;2.23;;;12.40;96.90;;;12.76;41.56;100415.13;4917173;28;97553;-49